Flight Track Log - Related Links

Times and Time Zones

All times are in EDT time to prevent confusion due to time zone crossing. See the EJM475 flight status page for this flight to view local times or setup timezone preferences in your user account.

Time Position Orientation Groundspeed Altitude Reporting Facility
EDT Latitude Longitude Course Direction KTS MPH feet Rate Location/Type
Thu 04:16:02 PM 39.1667 -94.5500 38° Northeast 193 222 4,000  Level Kansas City TRACON
Thu 04:17:26 PM 39.1781 -94.4467 82° East 241 277 8,200 2,548 Climbing Kansas City Center
Thu 04:18:28 PM 39.1211 -94.4094 153° Southeast 274 315 10,200 1,680 Climbing Kansas City Center
Thu 04:19:31 PM 39.0547 -94.5025 227° Southwest 318 366 11,700 2,256 Climbing Kansas City Center
Thu 04:20:33 PM 38.9922 -94.5858 226° Southwest 334 384 14,900 3,145 Climbing Kansas City Center
Thu 04:21:35 PM 38.9242 -94.6794 227° Southwest 322 371 18,200 2,758 Climbing Kansas City Center
Thu 04:22:37 PM 38.8631 -94.7600 226° Southwest 326 375 20,600 2,032 Climbing Kansas City Center
Thu 04:23:39 PM 38.7794 -94.8147 207° Southwest 354 407 22,400 1,403 Climbing Kansas City Center
Thu 04:24:41 PM 38.6628 -94.8594 197° South 392 451 23,500 1,839 Climbing Kansas City Center
Thu 04:25:43 PM 38.5597 -94.8981 196° South 398 458 26,200 2,226 Climbing Kansas City Center
Thu 04:26:45 PM 38.4403 -94.9464 198° South 403 464 28,100 1,694 Climbing Kansas City Center
Thu 04:27:47 PM 38.3342 -94.9867 197° South 415 478 29,700 1,645 Climbing Kansas City Center
Thu 04:28:49 PM 38.2078 -95.0353 197° South 419 482 31,500 2,081 Climbing Kansas City Center
Thu 04:29:51 PM 38.0989 -95.0778 197° South 425 489 34,000 1,839 Climbing Kansas City Center
Thu 04:30:53 PM 37.9786 -95.1225 196° South 407 468 35,300 968 Climbing Kansas City Center
Thu 04:31:55 PM 37.8678 -95.1658 197° South 417 480 36,000 339 Climbing Kansas City Center
Thu 04:32:57 PM 37.7464 -95.2128 197° South 446 513 36,000  Level Kansas City Center
Thu 04:33:59 PM 37.6192 -95.2608 197° South 470 541 36,000  Level Kansas City Center
Thu 04:35:01 PM 37.4906 -95.3103 197° South 480 552 36,000  Level Kansas City Center
Thu 04:36:03 PM 37.3642 -95.3572 196° South 476 548 36,000  Level Kansas City Center
Thu 04:37:05 PM 37.2150 -95.4125 196° South 468 539 36,000  Level Kansas City Center
Thu 04:38:07 PM 37.0919 -95.4575 196° South 462 532 36,000  Level Kansas City Center
Thu 04:39:09 PM 36.9667 -95.5036 196° South 467 537 36,000  Level Kansas City Center
Thu 04:40:11 PM 36.8417 -95.5514 197° South 470 541 36,000  Level Kansas City Center
Thu 04:41:14 PM 36.7167 -95.5981 197° South 470 541 36,000  Level Kansas City Center
Thu 04:42:16 PM 36.5808 -95.6486 197° South 468 539 36,000  Level Kansas City Center
Thu 04:43:18 PM 36.4561 -95.6947 197° South 467 537 36,000  Level Kansas City Center
Thu 04:44:20 PM 36.3314 -95.7383 196° South 466 536 36,000  Level Kansas City Center
Thu 04:45:22 PM 36.1975 -95.7681 190° South 466 536 36,000  Level Kansas City Center
Thu 04:46:24 PM 36.0528 -95.7400 171° South 464 534 36,000  Level Kansas City Center
Thu 04:47:26 PM 35.9239 -95.7000 166° South 459 528 36,000  Level Kansas City Center
Thu 04:48:28 PM 35.8011 -95.6606 165° South 457 526 36,000  Level Kansas City Center
Thu 04:49:30 PM 35.6792 -95.6214 165° South 454 522 36,000  Level Kansas City Center
Thu 04:50:31 PM 35.5578 -95.5842 166° South 456 525 36,000 -893 Level Fort Worth Center
Thu 04:51:31 PM 35.4361 -95.5486 167° South 451 519 34,200 -1,900 Descending Fort Worth Center
Thu 04:52:31 PM 35.3125 -95.5081 165° South 456 525 32,200 -1,600 Descending Fort Worth Center
Thu 04:53:31 PM 35.1911 -95.4703 166° South 456 525 31,000 -700 Descending Fort Worth Center
Thu 04:54:31 PM 35.0639 -95.4756 182° South 456 525 30,800 -250 Descending Fort Worth Center
Thu 04:55:31 PM 34.9375 -95.5267 198° South 456 525 30,500 -450 Descending Fort Worth Center
Thu 04:56:31 PM 34.8131 -95.5825 200° South 467 537 29,900 -1,200 Descending Fort Worth Center
Thu 04:57:31 PM 34.6908 -95.6458 203° Southwest 473 544 28,100 -1,400 Descending Fort Worth Center
Thu 04:58:31 PM 34.5706 -95.7036 202° Southwest 478 550 27,100 -1,000 Descending Fort Worth Center
Thu 04:59:31 PM 34.4506 -95.7639 203° Southwest 472 543 26,100 -950 Descending Fort Worth Center
Thu 05:00:31 PM 34.3303 -95.8217 202° Southwest 472 543 25,200 -1,350 Descending Fort Worth Center
Thu 05:01:31 PM 34.2161 -95.8764 202° Southwest 466 536 23,400 -2,050 Descending Fort Worth Center
Thu 05:02:31 PM 34.1042 -95.9311 202° Southwest 455 524 21,100 -2,300 Descending Fort Worth Center
Thu 05:03:31 PM 33.9983 -95.9831 202° Southwest 434 499 18,800 -2,200 Descending Fort Worth Center
Thu 05:04:31 PM 33.8903 -96.0347 202° Southwest 424 488 16,700 -2,100 Descending Fort Worth Center
Thu 05:05:31 PM 33.7886 -96.0839 202° Southwest 402 463 14,600 -2,100 Descending Fort Worth Center
Thu 05:06:31 PM 33.6764 -96.1381 202° Southwest 397 457 12,500 -1,950 Descending Fort Worth Center
Thu 05:07:31 PM 33.5850 -96.1817 202° Southwest 391 450 10,700 -1,250 Descending Fort Worth Center
Thu 05:08:31 PM 33.4750 -96.2356 202° Southwest 391 450 10,000 -350 Descending Fort Worth Center
Thu 05:09:31 PM 33.3939 -96.2739 202° Southwest 370 426 10,000 -500 Level Fort Worth Center
Thu 05:10:31 PM 33.3108 -96.3147 202° Southwest 318 366 9,000 -1,050 Descending Fort Worth Center
Thu 05:11:31 PM 33.2550 -96.3700 220° Southwest 289 333 7,900 -1,200 Descending Fort Worth Center
Thu 05:12:31 PM 33.2033 -96.4503 232° Southwest 282 325 6,600 -1,200 Descending Fort Worth Center
Thu 05:13:31 PM 33.1642 -96.5150 234° Southwest 282 325 5,500 -1,150 Descending Fort Worth Center
Thu 05:14:31 PM 33.1167 -96.5850 231° Southwest 282 325 4,300 -750 Descending Fort Worth Center
Thu 05:15:31 PM 33.0692 -96.6597 233° Southwest 272 313 4,000 -600 Descending Fort Worth Center
Thu 05:16:31 PM 33.0319 -96.7222 235° Southwest 267 307 3,100 -659 Descending Fort Worth Center
Thu 05:17:02 PM 33.0000 -96.7667 229° Southwest 264 304 3,000 -71 Descending Dallas / Fort Worth TRACON
Thu 05:17:56 PM 32.9667 -96.8167 232° Southwest 261 300 3,000 -550 Level Dallas / Fort Worth TRACON
Thu 05:19:02 PM 32.9167 -96.8833 228° Southwest 229 264 1,900 -950 Descending Dallas / Fort Worth TRACON
Thu 05:19:56 PM 32.8667 -96.8667 164° South 135 155 1,100 -167 Descending Dallas / Fort Worth TRACON
Thu 05:20:50 PM 32.8500 -96.8500 140° Southeast 178 205 1,600 842 Climbing Dallas / Fort Worth TRACON
Thu 05:21:50 PM 32.8167 -96.8000 128° Southeast 179 206 2,700 700 Climbing Dallas / Fort Worth TRACON
Thu 05:22:50 PM 32.8500 -96.7833 23° Northeast 207 238 3,000 -150 Climbing Dallas / Fort Worth TRACON
Thu 05:23:50 PM 32.9000 -96.8167 331° Northwest 214 246 2,400 -500 Descending Dallas / Fort Worth TRACON
Thu 05:24:50 PM 32.9333 -96.8667 308° West 200 230 2,000 -350 Descending Dallas / Fort Worth TRACON
Thu 05:25:50 PM 32.9000 -96.9000 220° Southwest 192 221 1,700 -550 Descending Dallas / Fort Worth TRACON
Thu 05:26:50 PM 32.8667 -96.8667 140° Southeast 128 147 900 -800 Descending Dallas / Fort Worth TRACON

Login

Don't have an account? Register now (free) for customized features, flight alerts, and more!